sensor_id;sensor_type;location;lat;lon;timestamp;pressure;altitude;pressure_sealevel;temperature;humidity
22481;BME280;11407;56.964;-2.212;2022-12-18T00:00:21;101673.72;;;6.28;55.77
22481;BME280;11407;56.964;-2.212;2022-12-18T00:02:46;101676.03;;;6.35;54.47
22481;BME280;11407;56.964;-2.212;2022-12-18T00:05:12;101681.09;;;6.38;54.60
22481;BME280;11407;56.964;-2.212;2022-12-18T00:07:37;101674.91;;;6.41;55.37
22481;BME280;11407;56.964;-2.212;2022-12-18T00:10:03;101678.28;;;6.43;54.58
22481;BME280;11407;56.964;-2.212;2022-12-18T00:12:29;101688.94;;;6.38;55.69
22481;BME280;11407;56.964;-2.212;2022-12-18T00:14:54;101695.19;;;6.36;55.19
22481;BME280;11407;56.964;-2.212;2022-12-18T00:17:20;101681.06;;;6.40;55.20
22481;BME280;11407;56.964;-2.212;2022-12-18T00:19:46;101686.63;;;6.32;55.77
22481;BME280;11407;56.964;-2.212;2022-12-18T00:22:11;101699.56;;;6.35;55.67
22481;BME280;11407;56.964;-2.212;2022-12-18T00:24:36;101696.03;;;6.36;55.63
22481;BME280;11407;56.964;-2.212;2022-12-18T00:27:02;101704.53;;;6.41;55.56
22481;BME280;11407;56.964;-2.212;2022-12-18T00:29:27;101708.25;;;6.36;55.05
22481;BME280;11407;56.964;-2.212;2022-12-18T00:31:53;101695.19;;;6.36;54.91
22481;BME280;11407;56.964;-2.212;2022-12-18T00:34:18;101686.34;;;6.38;55.73
22481;BME280;11407;56.964;-2.212;2022-12-18T00:36:44;101689.81;;;6.39;55.71
22481;BME280;11407;56.964;-2.212;2022-12-18T00:39:10;101692.09;;;6.46;55.25
22481;BME280;11407;56.964;-2.212;2022-12-18T00:41:36;101695.75;;;6.42;54.94
22481;BME280;11407;56.964;-2.212;2022-12-18T00:44:20;101703.63;;;6.42;54.79
22481;BME280;11407;56.964;-2.212;2022-12-18T00:46:47;101706.31;;;6.41;54.54
22481;BME280;11407;56.964;-2.212;2022-12-18T00:49:12;101707.66;;;6.29;54.86
22481;BME280;11407;56.964;-2.212;2022-12-18T00:51:38;101705.34;;;6.24;55.54
22481;BME280;11407;56.964;-2.212;2022-12-18T00:54:03;101699.94;;;6.26;54.62
22481;BME280;11407;56.964;-2.212;2022-12-18T00:56:29;101704.94;;;6.32;54.46
22481;BME280;11407;56.964;-2.212;2022-12-18T00:58:54;101693.75;;;6.29;55.51
22481;BME280;11407;56.964;-2.212;2022-12-18T01:01:20;101697.28;;;6.28;55.00
22481;BME280;11407;56.964;-2.212;2022-12-18T01:03:45;101697.91;;;6.33;54.96
22481;BME280;11407;56.964;-2.212;2022-12-18T01:06:12;101691.66;;;6.37;54.92
22481;BME280;11407;56.964;-2.212;2022-12-18T01:08:38;101694.38;;;6.34;55.18
22481;BME280;11407;56.964;-2.212;2022-12-18T01:11:12;101707.16;;;6.41;54.70
22481;BME280;11407;56.964;-2.212;2022-12-18T01:13:39;101697.91;;;6.33;54.42
22481;BME280;11407;56.964;-2.212;2022-12-18T01:16:05;101703.31;;;6.30;55.19
22481;BME280;11407;56.964;-2.212;2022-12-18T01:18:31;101701.53;;;6.30;54.26
22481;BME280;11407;56.964;-2.212;2022-12-18T01:20:56;101698.41;;;6.23;54.45
22481;BME280;11407;56.964;-2.212;2022-12-18T01:23:22;101695.91;;;6.20;54.91
22481;BME280;11407;56.964;-2.212;2022-12-18T01:25:47;101688.97;;;6.19;55.17
22481;BME280;11407;56.964;-2.212;2022-12-18T01:28:12;101695.78;;;6.23;54.53
22481;BME280;11407;56.964;-2.212;2022-12-18T01:30:38;101703.88;;;6.17;54.55
22481;BME280;11407;56.964;-2.212;2022-12-18T01:33:04;101704.47;;;6.23;54.31
22481;BME280;11407;56.964;-2.212;2022-12-18T01:35:30;101693.53;;;6.14;54.05
22481;BME280;11407;56.964;-2.212;2022-12-18T01:37:56;101695.44;;;6.10;54.82
22481;BME280;11407;56.964;-2.212;2022-12-18T01:40:21;101687.00;;;6.04;54.65
22481;BME280;11407;56.964;-2.212;2022-12-18T01:42:53;101691.84;;;6.13;54.39
22481;BME280;11407;56.964;-2.212;2022-12-18T01:47:51;101691.84;;;6.13;54.61
22481;BME280;11407;56.964;-2.212;2022-12-18T01:50:38;101690.88;;;6.15;54.69
22481;BME280;11407;56.964;-2.212;2022-12-18T01:53:15;101686.78;;;6.08;54.15
22481;BME280;11407;56.964;-2.212;2022-12-18T01:55:56;101686.47;;;6.16;54.09
22481;BME280;11407;56.964;-2.212;2022-12-18T01:58:30;101687.06;;;6.22;53.85
22481;BME280;11407;56.964;-2.212;2022-12-18T02:00:58;101684.84;;;6.13;54.35
22481;BME280;11407;56.964;-2.212;2022-12-18T02:03:24;101685.75;;;6.12;54.77
22481;BME280;11407;56.964;-2.212;2022-12-18T02:05:55;101691.84;;;6.13;54.80
22481;BME280;11407;56.964;-2.212;2022-12-18T02:11:59;101698.53;;;6.20;54.22
22481;BME280;11407;56.964;-2.212;2022-12-18T02:17:37;101707.91;;;6.04;55.28
22481;BME280;11407;56.964;-2.212;2022-12-18T02:22:53;101715.03;;;6.00;55.02
22481;BME280;11407;56.964;-2.212;2022-12-18T02:28:26;101707.31;;;5.97;55.13
22481;BME280;11407;56.964;-2.212;2022-12-18T02:30:56;101711.78;;;5.95;55.08
22481;BME280;11407;56.964;-2.212;2022-12-18T02:33:23;101712.13;;;5.86;55.34
22481;BME280;11407;56.964;-2.212;2022-12-18T02:35:51;101710.31;;;5.88;54.87
22481;BME280;11407;56.964;-2.212;2022-12-18T02:38:19;101719.28;;;5.83;55.18
22481;BME280;11407;56.964;-2.212;2022-12-18T02:40:45;101723.34;;;5.90;54.64
22481;BME280;11407;56.964;-2.212;2022-12-18T02:43:14;101716.41;;;5.89;55.00
22481;BME280;11407;56.964;-2.212;2022-12-18T02:46:20;101712.91;;;5.90;54.80
22481;BME280;11407;56.964;-2.212;2022-12-18T02:48:49;101712.03;;;5.89;55.36
22481;BME280;11407;56.964;-2.212;2022-12-18T02:51:29;101720.59;;;5.93;54.52
22481;BME280;11407;56.964;-2.212;2022-12-18T02:54:03;101723.19;;;5.93;54.31
22481;BME280;11407;56.964;-2.212;2022-12-18T02:56:46;101725.38;;;5.83;55.13
22481;BME280;11407;56.964;-2.212;2022-12-18T02:59:18;101724.56;;;5.81;55.02
22481;BME280;11407;56.964;-2.212;2022-12-18T03:01:51;101723.66;;;5.82;55.33
22481;BME280;11407;56.964;-2.212;2022-12-18T03:04:34;101728.09;;;5.80;54.58
22481;BME280;11407;56.964;-2.212;2022-12-18T03:07:07;101720.59;;;5.71;54.67
22481;BME280;11407;56.964;-2.212;2022-12-18T03:09:41;101725.25;;;5.63;54.66
22481;BME280;11407;56.964;-2.212;2022-12-18T03:12:21;101727.84;;;5.65;54.95
22481;BME280;11407;56.964;-2.212;2022-12-18T03:14:59;101736.31;;;5.70;53.95
22481;BME280;11407;56.964;-2.212;2022-12-18T03:17:27;101728.78;;;5.62;54.31
22481;BME280;11407;56.964;-2.212;2022-12-18T03:19:56;101727.22;;;5.58;54.26
22481;BME280;11407;56.964;-2.212;2022-12-18T03:22:24;101725.69;;;5.53;54.53
22481;BME280;11407;56.964;-2.212;2022-12-18T03:24:53;101724.84;;;5.52;54.55
22481;BME280;11407;56.964;-2.212;2022-12-18T03:27:20;101723.38;;;5.45;54.86
22481;BME280;11407;56.964;-2.212;2022-12-18T03:30:03;101725.63;;;5.54;54.71
22481;BME280;11407;56.964;-2.212;2022-12-18T03:32:39;101722.94;;;5.56;54.99
22481;BME280;11407;56.964;-2.212;2022-12-18T03:35:08;101735.25;;;5.54;54.51
22481;BME280;11407;56.964;-2.212;2022-12-18T03:37:35;101708.44;;;5.49;54.52
22481;BME280;11407;56.964;-2.212;2022-12-18T03:40:02;101726.50;;;5.55;54.01
22481;BME280;11407;56.964;-2.212;2022-12-18T03:42:33;101733.53;;;5.53;54.43
22481;BME280;11407;56.964;-2.212;2022-12-18T03:50:32;101727.81;;;5.43;54.65
22481;BME280;11407;56.964;-2.212;2022-12-18T03:55:50;101730.00;;;5.32;54.12
22481;BME280;11407;56.964;-2.212;2022-12-18T03:58:19;101738.84;;;5.29;54.46
22481;BME280;11407;56.964;-2.212;2022-12-18T04:00:47;101745.88;;;5.27;54.31
22481;BME280;11407;56.964;-2.212;2022-12-18T04:03:16;101744.22;;;5.26;54.14
22481;BME280;11407;56.964;-2.212;2022-12-18T04:05:44;101746.25;;;5.18;54.11
22481;BME280;11407;56.964;-2.212;2022-12-18T04:08:11;101765.44;;;5.17;54.03
22481;BME280;11407;56.964;-2.212;2022-12-18T04:10:37;101762.16;;;5.12;54.15
22481;BME280;11407;56.964;-2.212;2022-12-18T04:13:02;101765.59;;;5.12;54.38
22481;BME280;11407;56.964;-2.212;2022-12-18T04:15:28;101763.25;;;5.06;54.34
22481;BME280;11407;56.964;-2.212;2022-12-18T04:17:53;101769.38;;;5.05;54.91
22481;BME280;11407;56.964;-2.212;2022-12-18T04:20:18;101771.91;;;5.07;54.50
22481;BME280;11407;56.964;-2.212;2022-12-18T04:22:44;101767.56;;;5.07;54.43
22481;BME280;11407;56.964;-2.212;2022-12-18T04:25:09;101764.88;;;5.09;54.19
22481;BME280;11407;56.964;-2.212;2022-12-18T04:27:35;101765.97;;;5.03;54.61
22481;BME280;11407;56.964;-2.212;2022-12-18T04:30:00;101770.22;;;5.06;54.36
22481;BME280;11407;56.964;-2.212;2022-12-18T04:32:26;101771.91;;;5.07;54.77
22481;BME280;11407;56.964;-2.212;2022-12-18T04:34:51;101767.50;;;5.09;55.14
22481;BME280;11407;56.964;-2.212;2022-12-18T04:37:17;101759.44;;;5.15;54.41
22481;BME280;11407;56.964;-2.212;2022-12-18T04:39:42;101767.03;;;5.21;55.27
22481;BME280;11407;56.964;-2.212;2022-12-18T04:42:08;101759.66;;;5.32;55.09
22481;BME280;11407;56.964;-2.212;2022-12-18T04:44:33;101759.91;;;5.47;55.07
22481;BME280;11407;56.964;-2.212;2022-12-18T04:46:59;101764.94;;;5.51;55.56
22481;BME280;11407;56.964;-2.212;2022-12-18T04:49:24;101755.78;;;5.63;55.10
22481;BME280;11407;56.964;-2.212;2022-12-18T04:51:50;101744.69;;;5.79;55.86
22481;BME280;11407;56.964;-2.212;2022-12-18T04:54:16;101743.28;;;5.92;55.99
22481;BME280;11407;56.964;-2.212;2022-12-18T04:56:45;101731.22;;;6.10;55.76
22481;BME280;11407;56.964;-2.212;2022-12-18T04:59:10;101723.66;;;6.24;55.24
22481;BME280;11407;56.964;-2.212;2022-12-18T05:01:36;101721.28;;;6.37;56.15
22481;BME280;11407;56.964;-2.212;2022-12-18T05:04:02;101712.84;;;6.51;54.90
22481;BME280;11407;56.964;-2.212;2022-12-18T05:06:28;101701.97;;;6.60;54.84
22481;BME280;11407;56.964;-2.212;2022-12-18T05:08:53;101690.28;;;6.67;54.72
22481;BME280;11407;56.964;-2.212;2022-12-18T05:11:18;101684.28;;;6.65;55.02
22481;BME280;11407;56.964;-2.212;2022-12-18T05:13:44;101671.19;;;6.65;54.91
22481;BME280;11407;56.964;-2.212;2022-12-18T05:16:11;101666.78;;;6.65;54.40
22481;BME280;11407;56.964;-2.212;2022-12-18T05:18:37;101658.22;;;6.62;55.30
22481;BME280;11407;56.964;-2.212;2022-12-18T05:21:03;101658.66;;;6.53;55.81
22481;BME280;11407;56.964;-2.212;2022-12-18T05:23:28;101658.00;;;6.48;54.25
22481;BME280;11407;56.964;-2.212;2022-12-18T05:25:57;101657.09;;;6.67;55.07
22481;BME280;11407;56.964;-2.212;2022-12-18T05:28:23;101672.25;;;6.61;54.76
22481;BME280;11407;56.964;-2.212;2022-12-18T05:30:53;101669.53;;;6.62;54.68
22481;BME280;11407;56.964;-2.212;2022-12-18T05:33:22;101669.50;;;6.64;55.09
22481;BME280;11407;56.964;-2.212;2022-12-18T05:35:51;101657.09;;;6.67;54.72
22481;BME280;11407;56.964;-2.212;2022-12-18T05:38:18;101650.50;;;6.59;54.07
22481;BME280;11407;56.964;-2.212;2022-12-18T05:40:44;101648.34;;;6.48;54.79
22481;BME280;11407;56.964;-2.212;2022-12-18T05:43:10;101658.00;;;6.48;54.45
22481;BME280;11407;56.964;-2.212;2022-12-18T05:45:39;101669.75;;;6.58;54.47
22481;BME280;11407;56.964;-2.212;2022-12-18T05:48:05;101670.25;;;6.47;54.59
22481;BME280;11407;56.964;-2.212;2022-12-18T05:50:33;101669.38;;;6.47;54.89
22481;BME280;11407;56.964;-2.212;2022-12-18T05:52:58;101673.03;;;6.43;54.84
22481;BME280;11407;56.964;-2.212;2022-12-18T05:55:23;101663.31;;;6.46;54.25
22481;BME280;11407;56.964;-2.212;2022-12-18T05:57:49;101670.28;;;6.46;54.57
22481;BME280;11407;56.964;-2.212;2022-12-18T06:00:15;101664.16;;;6.47;54.92
22481;BME280;11407;56.964;-2.212;2022-12-18T06:02:40;101653.03;;;6.42;54.34
22481;BME280;11407;56.964;-2.212;2022-12-18T06:05:06;101652.09;;;6.43;54.72
22481;BME280;11407;56.964;-2.212;2022-12-18T06:07:32;101658.91;;;6.47;55.02
22481;BME280;11407;56.964;-2.212;2022-12-18T06:09:57;101655.50;;;6.45;54.70
22481;BME280;11407;56.964;-2.212;2022-12-18T06:12:22;101653.09;;;6.40;54.87
22481;BME280;11407;56.964;-2.212;2022-12-18T06:14:48;101656.03;;;6.33;54.44
22481;BME280;11407;56.964;-2.212;2022-12-18T06:17:13;101647.94;;;6.39;55.23
22481;BME280;11407;56.964;-2.212;2022-12-18T06:19:38;101656.50;;;6.42;54.90
22481;BME280;11407;56.964;-2.212;2022-12-18T06:22:04;101653.69;;;6.47;54.77
22481;BME280;11407;56.964;-2.212;2022-12-18T06:24:30;101647.41;;;6.51;55.75
22481;BME280;11407;56.964;-2.212;2022-12-18T06:26:55;101658.38;;;6.59;55.22
22481;BME280;11407;56.964;-2.212;2022-12-18T06:29:20;101654.75;;;6.61;55.79
22481;BME280;11407;56.964;-2.212;2022-12-18T06:31:46;101657.03;;;6.69;56.11
22481;BME280;11407;56.964;-2.212;2022-12-18T06:34:11;101646.50;;;6.70;55.65
22481;BME280;11407;56.964;-2.212;2022-12-18T06:36:37;101646.22;;;6.76;56.31
22481;BME280;11407;56.964;-2.212;2022-12-18T06:39:02;101647.69;;;6.82;55.85
22481;BME280;11407;56.964;-2.212;2022-12-18T06:41:28;101632.84;;;6.82;56.39
22481;BME280;11407;56.964;-2.212;2022-12-18T06:43:53;101646.22;;;6.95;55.85
22481;BME280;11407;56.964;-2.212;2022-12-18T06:46:18;101637.44;;;6.96;55.81
22481;BME280;11407;56.964;-2.212;2022-12-18T06:48:47;101634.28;;;7.06;55.92
22481;BME280;11407;56.964;-2.212;2022-12-18T06:51:16;101632.53;;;7.07;55.50
22481;BME280;11407;56.964;-2.212;2022-12-18T06:53:42;101634.59;;;7.00;55.29
22481;BME280;11407;56.964;-2.212;2022-12-18T06:56:07;101636.09;;;7.06;55.48
22481;BME280;11407;56.964;-2.212;2022-12-18T06:58:34;101628.78;;;7.12;55.75
22481;BME280;11407;56.964;-2.212;2022-12-18T07:01:00;101640.16;;;7.29;56.11
22481;BME280;11407;56.964;-2.212;2022-12-18T07:03:26;101638.25;;;7.33;55.60
22481;BME280;11407;56.964;-2.212;2022-12-18T07:05:51;101638.25;;;7.33;55.34
22481;BME280;11407;56.964;-2.212;2022-12-18T07:08:17;101632.53;;;7.42;55.78
22481;BME280;11407;56.964;-2.212;2022-12-18T07:10:43;101634.44;;;7.57;55.39
22481;BME280;11407;56.964;-2.212;2022-12-18T07:13:08;101642.28;;;7.57;55.22
22481;BME280;11407;56.964;-2.212;2022-12-18T07:15:34;101643.72;;;7.64;56.14
22481;BME280;11407;56.964;-2.212;2022-12-18T07:17:59;101632.06;;;7.69;55.77
22481;BME280;11407;56.964;-2.212;2022-12-18T07:20:25;101625.25;;;7.65;55.94
22481;BME280;11407;56.964;-2.212;2022-12-18T07:22:50;101627.50;;;7.73;56.65
22481;BME280;11407;56.964;-2.212;2022-12-18T07:25:15;101629.91;;;7.77;55.89
22481;BME280;11407;56.964;-2.212;2022-12-18T07:27:41;101638.47;;;7.81;55.79
22481;BME280;11407;56.964;-2.212;2022-12-18T07:30:07;101635.06;;;7.96;55.14
22481;BME280;11407;56.964;-2.212;2022-12-18T07:32:33;101628.50;;;7.87;56.83
22481;BME280;11407;56.964;-2.212;2022-12-18T07:34:58;101620.09;;;7.98;55.09
22481;BME280;11407;56.964;-2.212;2022-12-18T07:37:23;101619.34;;;7.96;56.28
22481;BME280;11407;56.964;-2.212;2022-12-18T07:39:49;101618.84;;;8.04;55.30
22481;BME280;11407;56.964;-2.212;2022-12-18T07:42:14;101606.56;;;8.05;55.20
22481;BME280;11407;56.964;-2.212;2022-12-18T07:44:59;101593.44;;;8.05;55.19
22481;BME280;11407;56.964;-2.212;2022-12-18T07:47:25;101583.81;;;8.05;55.87
22481;BME280;11407;56.964;-2.212;2022-12-18T07:49:51;101573.22;;;8.07;55.97
22481;BME280;11407;56.964;-2.212;2022-12-18T07:52:16;101575.16;;;8.03;55.47
22481;BME280;11407;56.964;-2.212;2022-12-18T07:54:41;101579.16;;;8.10;54.52
22481;BME280;11407;56.964;-2.212;2022-12-18T07:57:07;101580.50;;;8.19;55.10
22481;BME280;11407;56.964;-2.212;2022-12-18T07:59:33;101589.13;;;8.21;54.80
22481;BME280;11407;56.964;-2.212;2022-12-18T08:01:58;101578.88;;;8.16;55.01
22481;BME280;11407;56.964;-2.212;2022-12-18T08:04:24;101582.81;;;8.25;55.30
22481;BME280;11407;56.964;-2.212;2022-12-18T08:06:50;101589.66;;;8.27;55.65
22481;BME280;11407;56.964;-2.212;2022-12-18T08:09:15;101590.69;;;8.25;55.62
22481;BME280;11407;56.964;-2.212;2022-12-18T08:11:41;101590.50;;;8.28;55.67
22481;BME280;11407;56.964;-2.212;2022-12-18T08:14:06;101580.25;;;8.23;55.41
22481;BME280;11407;56.964;-2.212;2022-12-18T08:16:31;101570.34;;;8.28;55.53
22481;BME280;11407;56.964;-2.212;2022-12-18T08:18:57;101562.88;;;8.21;55.58
22481;BME280;11407;56.964;-2.212;2022-12-18T08:21:25;101556.16;;;8.32;55.64
22481;BME280;11407;56.964;-2.212;2022-12-18T08:23:52;101565.00;;;8.30;56.00
22481;BME280;11407;56.964;-2.212;2022-12-18T08:26:19;101556.47;;;8.26;55.59
22481;BME280;11407;56.964;-2.212;2022-12-18T08:28:44;101562.47;;;8.28;55.27
22481;BME280;11407;56.964;-2.212;2022-12-18T08:31:10;101559.44;;;8.36;56.14
22481;BME280;11407;56.964;-2.212;2022-12-18T08:33:37;101559.88;;;8.44;55.63
22481;BME280;11407;56.964;-2.212;2022-12-18T08:36:04;101550.91;;;8.48;55.49
22481;BME280;11407;56.964;-2.212;2022-12-18T08:38:31;101537.00;;;8.46;56.00
22481;BME280;11407;56.964;-2.212;2022-12-18T08:41:05;101534.50;;;8.60;55.15
22481;BME280;11407;56.964;-2.212;2022-12-18T08:43:31;101527.19;;;8.49;56.48
22481;BME280;11407;56.964;-2.212;2022-12-18T08:46:17;101536.34;;;8.58;55.87
22481;BME280;11407;56.964;-2.212;2022-12-18T08:48:43;101543.97;;;8.62;56.00
22481;BME280;11407;56.964;-2.212;2022-12-18T08:51:09;101544.66;;;8.66;55.57
22481;BME280;11407;56.964;-2.212;2022-12-18T08:53:35;101541.75;;;8.70;55.54
22481;BME280;11407;56.964;-2.212;2022-12-18T08:56:02;101529.31;;;8.74;55.44
22481;BME280;11407;56.964;-2.212;2022-12-18T08:58:27;101525.50;;;8.79;56.27
22481;BME280;11407;56.964;-2.212;2022-12-18T09:00:52;101520.41;;;8.92;55.72
22481;BME280;11407;56.964;-2.212;2022-12-18T09:03:18;101511.88;;;9.17;56.50
22481;BME280;11407;56.964;-2.212;2022-12-18T09:05:45;101498.47;;;9.51;56.44
22481;BME280;11407;56.964;-2.212;2022-12-18T09:08:12;101505.63;;;9.63;57.61
22481;BME280;11407;56.964;-2.212;2022-12-18T09:10:44;101500.81;;;9.99;58.65
22481;BME280;11407;56.964;-2.212;2022-12-18T09:13:11;101493.63;;;10.29;58.57
22481;BME280;11407;56.964;-2.212;2022-12-18T09:15:43;101495.00;;;10.62;57.81
22481;BME280;11407;56.964;-2.212;2022-12-18T09:18:11;101494.56;;;10.82;58.07
22481;BME280;11407;56.964;-2.212;2022-12-18T09:20:37;101485.88;;;11.06;58.11
22481;BME280;11407;56.964;-2.212;2022-12-18T09:23:03;101473.06;;;11.27;58.12
22481;BME280;11407;56.964;-2.212;2022-12-18T09:25:30;101472.38;;;11.50;57.52
22481;BME280;11407;56.964;-2.212;2022-12-18T09:28:18;101465.75;;;11.81;57.28
22481;BME280;11407;56.964;-2.212;2022-12-18T09:30:46;101479.31;;;11.89;57.19
22481;BME280;11407;56.964;-2.212;2022-12-18T09:33:12;101473.50;;;11.97;57.05
22481;BME280;11407;56.964;-2.212;2022-12-18T09:35:40;101469.66;;;12.13;56.96
22481;BME280;11407;56.964;-2.212;2022-12-18T09:38:07;101474.84;;;12.15;57.19
22481;BME280;11407;56.964;-2.212;2022-12-18T09:40:36;101482.63;;;12.29;57.06
22481;BME280;11407;56.964;-2.212;2022-12-18T09:43:05;101477.75;;;12.35;56.92
22481;BME280;11407;56.964;-2.212;2022-12-18T09:45:40;101475.94;;;12.48;56.50
22481;BME280;11407;56.964;-2.212;2022-12-18T09:48:11;101462.47;;;12.51;56.91
22481;BME280;11407;56.964;-2.212;2022-12-18T09:50:41;101462.94;;;12.45;56.88
22481;BME280;11407;56.964;-2.212;2022-12-18T09:53:13;101454.13;;;12.57;56.65
22481;BME280;11407;56.964;-2.212;2022-12-18T09:55:45;101443.00;;;12.64;56.89
22481;BME280;11407;56.964;-2.212;2022-12-18T09:58:28;101449.06;;;12.77;56.60
22481;BME280;11407;56.964;-2.212;2022-12-18T10:00:55;101445.28;;;12.69;56.59
22481;BME280;11407;56.964;-2.212;2022-12-18T10:03:21;101445.22;;;12.81;56.79
22481;BME280;11407;56.964;-2.212;2022-12-18T10:19:43;101434.19;;;13.45;55.83
22481;BME280;11407;56.964;-2.212;2022-12-18T10:27:26;101408.94;;;13.63;55.61
22481;BME280;11407;56.964;-2.212;2022-12-18T10:29:53;101410.38;;;13.67;56.58
22481;BME280;11407;56.964;-2.212;2022-12-18T10:32:24;101397.88;;;13.69;55.82
22481;BME280;11407;56.964;-2.212;2022-12-18T10:34:51;101394.28;;;13.70;55.57
22481;BME280;11407;56.964;-2.212;2022-12-18T10:37:21;101399.44;;;13.82;56.11
22481;BME280;11407;56.964;-2.212;2022-12-18T10:40:15;101393.91;;;13.85;55.48
22481;BME280;11407;56.964;-2.212;2022-12-18T10:42:41;101387.75;;;13.85;55.38
22481;BME280;11407;56.964;-2.212;2022-12-18T10:47:35;101385.97;;;13.85;55.82
22481;BME280;11407;56.964;-2.212;2022-12-18T10:50:02;101380.41;;;13.88;55.78
22481;BME280;11407;56.964;-2.212;2022-12-18T10:52:28;101377.78;;;13.88;55.76
22481;BME280;11407;56.964;-2.212;2022-12-18T10:55:02;101371.47;;;13.89;55.68
22481;BME280;11407;56.964;-2.212;2022-12-18T10:57:37;101379.78;;;13.74;55.81
22481;BME280;11407;56.964;-2.212;2022-12-18T11:00:27;101361.25;;;13.74;55.90
22481;BME280;11407;56.964;-2.212;2022-12-18T11:02:54;101354.25;;;13.73;56.38
22481;BME280;11407;56.964;-2.212;2022-12-18T11:07:50;101345.22;;;13.97;55.37
22481;BME280;11407;56.964;-2.212;2022-12-18T11:10:20;101333.16;;;14.04;54.98
22481;BME280;11407;56.964;-2.212;2022-12-18T11:12:47;101317.41;;;13.92;54.72
22481;BME280;11407;56.964;-2.212;2022-12-18T11:15:29;101307.97;;;14.10;54.00
22481;BME280;11407;56.964;-2.212;2022-12-18T11:17:55;101300.78;;;13.90;53.87
22481;BME280;11407;56.964;-2.212;2022-12-18T11:20:41;101308.84;;;13.99;53.99
22481;BME280;11407;56.964;-2.212;2022-12-18T11:23:12;101301.16;;;13.96;53.41
22481;BME280;11407;56.964;-2.212;2022-12-18T11:25:39;101288.78;;;13.64;52.83
22481;BME280;11407;56.964;-2.212;2022-12-18T11:34:04;101258.94;;;14.04;52.93
22481;BME280;11407;56.964;-2.212;2022-12-18T11:36:37;101252.94;;;14.02;53.65
22481;BME280;11407;56.964;-2.212;2022-12-18T11:41:56;101238.38;;;13.97;51.83
22481;BME280;11407;56.964;-2.212;2022-12-18T11:44:58;101237.78;;;13.93;52.91
22481;BME280;11407;56.964;-2.212;2022-12-18T11:50:24;101218.75;;;13.99;51.02
22481;BME280;11407;56.964;-2.212;2022-12-18T11:52:50;101219.53;;;13.68;51.99
22481;BME280;11407;56.964;-2.212;2022-12-18T11:55:30;101203.44;;;13.60;50.25
22481;BME280;11407;56.964;-2.212;2022-12-18T11:58:44;101205.72;;;13.65;51.13
22481;BME280;11407;56.964;-2.212;2022-12-18T12:09:37;101195.31;;;13.73;51.81
22481;BME280;11407;56.964;-2.212;2022-12-18T12:26:08;101166.97;;;13.53;52.69
22481;BME280;11407;56.964;-2.212;2022-12-18T12:28:46;101161.94;;;13.50;52.89
22481;BME280;11407;56.964;-2.212;2022-12-18T12:31:28;101152.66;;;13.55;53.01
22481;BME280;11407;56.964;-2.212;2022-12-18T12:39:40;101141.22;;;13.55;52.93
22481;BME280;11407;56.964;-2.212;2022-12-18T12:42:29;101138.72;;;13.53;51.51
22481;BME280;11407;56.964;-2.212;2022-12-18T12:51:04;101114.38;;;13.59;51.15
22481;BME280;11407;56.964;-2.212;2022-12-18T12:53:36;101107.63;;;13.55;50.66
22481;BME280;11407;56.964;-2.212;2022-12-18T12:56:04;101104.09;;;13.66;53.72
22481;BME280;11407;56.964;-2.212;2022-12-18T13:04:36;101073.44;;;13.84;50.70
22481;BME280;11407;56.964;-2.212;2022-12-18T13:07:17;101088.03;;;13.78;51.74
22481;BME280;11407;56.964;-2.212;2022-12-18T13:15:33;101074.38;;;13.62;52.82
22481;BME280;11407;56.964;-2.212;2022-12-18T13:20:37;101063.41;;;13.36;51.24
22481;BME280;11407;56.964;-2.212;2022-12-18T13:23:36;101055.63;;;13.54;51.22
22481;BME280;11407;56.964;-2.212;2022-12-18T13:36:40;101017.28;;;13.18;49.55
22481;BME280;11407;56.964;-2.212;2022-12-18T13:42:01;101018.88;;;13.41;51.07
22481;BME280;11407;56.964;-2.212;2022-12-18T13:44:56;101005.69;;;13.30;52.07
22481;BME280;11407;56.964;-2.212;2022-12-18T13:49:54;100993.28;;;13.30;51.31
22481;BME280;11407;56.964;-2.212;2022-12-18T13:52:35;101009.75;;;13.34;50.38
22481;BME280;11407;56.964;-2.212;2022-12-18T13:55:05;101012.53;;;13.32;52.14
22481;BME280;11407;56.964;-2.212;2022-12-18T13:57:37;101008.31;;;13.41;50.90
22481;BME280;11407;56.964;-2.212;2022-12-18T14:00:32;100987.75;;;13.33;50.30
22481;BME280;11407;56.964;-2.212;2022-12-18T14:02:59;100994.63;;;13.25;51.74
22481;BME280;11407;56.964;-2.212;2022-12-18T14:05:28;101003.97;;;13.08;51.77
22481;BME280;11407;56.964;-2.212;2022-12-18T14:08:10;100990.84;;;13.38;51.37
22481;BME280;11407;56.964;-2.212;2022-12-18T14:10:44;100996.91;;;13.29;51.42
22481;BME280;11407;56.964;-2.212;2022-12-18T14:13:17;100992.19;;;13.33;51.32
22481;BME280;11407;56.964;-2.212;2022-12-18T14:15:47;100985.00;;;13.24;51.24
22481;BME280;11407;56.964;-2.212;2022-12-18T14:20:50;100962.59;;;13.07;51.12
22481;BME280;11407;56.964;-2.212;2022-12-18T14:23:29;100969.38;;;13.00;51.56
22481;BME280;11407;56.964;-2.212;2022-12-18T14:25:55;100963.34;;;12.98;52.39
22481;BME280;11407;56.964;-2.212;2022-12-18T14:28:20;100959.16;;;12.96;51.76
22481;BME280;11407;56.964;-2.212;2022-12-18T14:30:47;100946.28;;;12.91;50.97
22481;BME280;11407;56.964;-2.212;2022-12-18T14:33:27;100938.25;;;12.93;50.11
22481;BME280;11407;56.964;-2.212;2022-12-18T14:36:02;100946.00;;;13.05;50.88
22481;BME280;11407;56.964;-2.212;2022-12-18T14:41:03;100927.66;;;13.24;52.38
22481;BME280;11407;56.964;-2.212;2022-12-18T14:43:32;100918.03;;;13.23;51.24
22481;BME280;11407;56.964;-2.212;2022-12-18T14:45:59;100918.66;;;13.16;50.95
22481;BME280;11407;56.964;-2.212;2022-12-18T14:51:06;100912.00;;;13.01;48.17
22481;BME280;11407;56.964;-2.212;2022-12-18T14:53:35;100884.91;;;13.08;50.92
22481;BME280;11407;56.964;-2.212;2022-12-18T14:56:02;100895.72;;;13.05;50.55
22481;BME280;11407;56.964;-2.212;2022-12-18T14:58:28;100871.19;;;13.03;50.88
22481;BME280;11407;56.964;-2.212;2022-12-18T15:00:54;100878.38;;;13.12;51.33
22481;BME280;11407;56.964;-2.212;2022-12-18T15:03:20;100885.72;;;13.09;50.27
22481;BME280;11407;56.964;-2.212;2022-12-18T15:05:46;100875.19;;;12.98;48.16
22481;BME280;11407;56.964;-2.212;2022-12-18T15:08:35;100863.72;;;12.77;48.03